KNSE/NSE METAR and TAF weather

Enter ICAO airport designator
Station Type Date Time Source
KNSE METAR 2020/06/03 23:22 UTC NOAA

KNSE 032322Z 12010KT 10SM FEW025 SCT032 BKN050 BKN250 25/21 A2997 RMK CB DSNT S T2 SET T02500206


Station Type Date Time Source
KNSE Decoded METAR 2020/06/03 23:22 UTC NOAA

MILTON WHITING FIELD (NORTH), FL, United States (KNSE) 30-44N 87-01W 60M
Jun 03, 2020 - 07:22 PM EDT / 2020.06.03 2322 UTC
Wind: from the ESE (120 degrees) at 12 MPH (10 KT):0
Visibility: 10 mile(s):0
Sky conditions: mostly cloudy
Weather: Cumulonimbus clouds observed
Temperature: 77.0 F (25.0 C)
Dew Point: 69.1 F (20.6 C)
Relative Humidity: 76%
Pressure (altimeter): 29.97 in. Hg (1014 hPa)
ob: KNSE 032322Z 12010KT 10SM FEW025 SCT032 BKN050 BKN250 25/21 A2997 RMK CB DSNT S T2 SET T02500206
cycle: 23

Station Type Date Time Source
KNSE TAF 2020/06/03 23:57 UTC NOAA

TAF TAF KNSE 0323/0423 VRB05KT 9999 VCTS FEW030CB FEW080 BKN150 BKN250 QNH2993INS
FM040100 VRB03KT 9999 FEW030 FEW080 SCT150 SCT250 QNH2994INS
FM040800 VRB02KT 6000 BR SCT009 SCT025 BKN050 BKN250 QNH2994INS
TEMPO 0408/0411 3200 BR BKN009 BKN025
FM041300 VRB04KT 9999 VCSH SCT015 SCT025 BKN050 BKN250 QNH2993INS
FM041800 20006KT 9999 VCTS FEW030CB SCT050 SCT120 BKN250 QNH2986INS
TEMPO 0418/0423 VRB15G25KT 4800 TSRA BKN025CB BKN120 AUTOMATED SENSOR METWATCH 0404 TIL 0411 T21/0411Z T29/0419Z FN20031

Example: see airport list